Arapahoe, NE

6:47 AM CDT on April 25, 2017 (GMT -0500)
Elwood | | Change Station

Elev 2690 ft 40.59 °N, 99.86 °W | Updated 5 seconds ago

Overcast
Overcast
44.2 °F
Feels Like 41 °F
N
5.6
Wind Variable Wind from NE
Gusts 9.8 mph

Today
High -- | Low -- °F
--% Chance of Precip.
Yesterday
High -- | Low -- °F
Precip. -- in
Pressure 29.48 in
Visibility 10.0 miles
Clouds Overcast 5000 ft
Windchill 41 °F
Dew Point 28 °F
Humidity 52%
Rainfall 0.46 in
Snow Depth Not available.
6:46 AM 8:29 PM
Waning Crescent, 2% visible
METAR KHDE 251135Z AUTO 07013KT 10SM OVC050 08/06 A2948 RMK AO2 LTG DSNT NW T00800059
Pressure 29.48 in
Visibility 10.0 miles
Clouds Overcast 5000 ft
Windchill 41 °F
Dew Point 28 °F
Humidity 52%
Rainfall 0.46 in
Snow Depth Not available.
6:46 AM 8:29 PM
Waning Crescent, 2% visible
METAR KHDE 251135Z AUTO 07013KT 10SM OVC050 08/06 A2948 RMK AO2 LTG DSNT NW T00800059

Get Severe Weather Alerts

Thanks for signing up!

Be on the lookout for a verification email in your inbox.

You'll start receiving the daily forecast at 8 AM.

×

10-Day Weather Forecast

Almanac

Astronomy

Apr. 25, 2017 Rise Set
Actual Time
Civil Twilight
Nautical Twilight
Astronomical Twilight
Moon
Length of Visible Light
Length of Day
Tomorrow will be .
, % of the Moon is Illuminated

Today's Extremes

State Highs State Lows

Community

WunderPhotos

WunderBlog® & News

Nearby

Air Quality

  Air Quality AQ Index Pollutant
Not available.

Snow Depth

Station Depth Elevation

Earthquake Activity

City Distance Mag. Time & Date
Minimum magnitude displayed is 2.5.

Coastal Water Temperatures

Place Temperature

Stations

Nearby Weather Stations

Station Location Temp. Windchill Dew Point Humidity Wind Precip. Elev Updated Type
                   

Watches & Warnings

There are currently no watches in effect.